Time;durP1;ratioP1;P1;durP2;ratioP2;P2;SDS_P1;SDS_P2;PMS_P1;PMS_P2;Temp;Humidity;BMP_temperature;BMP_pressure;BME280_temperature;BME280_humidity;BME280_pressure;Samples;Min_cycle;Max_cycle;Signal;HPM_P1;HPM_P2
2023/12/10 00:02:14;;;;;;;17.52;6.40;;;9.50;99.90;;;;;;5095573;28;20173;-56
2023/12/10 00:04:40;;;;;;;25.77;6.57;;;9.50;99.90;;;;;;5095172;28;20169;-57
2023/12/10 00:07:06;;;;;;;28.00;4.68;;;9.50;99.90;;;;;;5095138;28;20158;-57
2023/12/10 00:09:31;;;;;;;29.58;5.47;;;9.50;99.90;;;;;;5095139;28;20661;-57
2023/12/10 00:11:57;;;;;;;27.73;5.57;;;9.50;99.90;;;;;;5094831;28;20204;-57
2023/12/10 00:14:24;;;;;;;23.42;5.88;;;9.40;99.90;;;;;;5095013;28;20244;-54
2023/12/10 00:16:50;;;;;;;29.40;6.43;;;9.50;99.90;;;;;;5094691;28;20211;-57
2023/12/10 00:19:15;;;;;;;29.33;6.70;;;9.50;99.90;;;;;;5094641;28;20567;-55
2023/12/10 00:21:41;;;;;;;28.50;5.32;;;9.50;99.90;;;;;;5094647;28;20177;-56
2023/12/10 00:24:07;;;;;;;24.80;4.63;;;9.40;99.90;;;;;;5096334;28;20215;-57
2023/12/10 00:26:33;;;;;;;21.17;5.10;;;9.50;99.90;;;;;;5114959;28;20165;-56
2023/12/10 00:28:58;;;;;;;24.08;4.95;;;9.60;99.90;;;;;;5114754;28;20547;-57
2023/12/10 00:31:24;;;;;;;31.08;5.63;;;9.60;99.90;;;;;;5114524;28;20164;-56
2023/12/10 00:33:49;;;;;;;18.65;4.88;;;9.60;99.90;;;;;;5114571;28;20520;-56
2023/12/10 00:36:15;;;;;;;25.63;5.63;;;9.60;99.90;;;;;;5114730;28;20167;-57
2023/12/10 00:38:42;;;;;;;23.05;4.20;;;9.60;99.90;;;;;;5114913;28;20173;-54
2023/12/10 00:41:11;;;;;;;31.08;4.40;;;9.60;99.90;;;;;;5114879;28;20200;-56
2023/12/10 00:43:38;;;;;;;22.27;4.60;;;9.60;99.90;;;;;;5114564;28;20192;-55
2023/12/10 00:46:05;;;;;;;23.45;5.40;;;9.60;99.90;;;;;;5114974;28;20564;-57
2023/12/10 00:48:30;;;;;;;30.75;4.95;;;9.60;99.90;;;;;;5107119;28;20188;-55
2023/12/10 00:50:56;;;;;;;31.80;6.10;;;9.60;99.90;;;;;;5094000;28;20660;-56
2023/12/10 00:53:21;;;;;;;23.55;5.22;;;9.70;99.90;;;;;;5093798;28;20209;-55
2023/12/10 00:55:47;;;;;;;20.42;4.88;;;9.70;99.90;;;;;;5093939;28;20169;-56
2023/12/10 00:58:13;;;;;;;22.63;4.78;;;9.80;99.90;;;;;;5111116;28;20173;-55
2023/12/10 01:00:40;;;;;;;32.45;5.88;;;9.70;99.90;;;;;;5114175;28;20175;-54
2023/12/10 01:03:06;;;;;;;23.35;4.45;;;9.60;99.90;;;;;;5114048;28;20225;-54
2023/12/10 01:05:32;;;;;;;19.00;3.53;;;9.60;99.90;;;;;;5114897;28;20149;-54
2023/12/10 01:07:58;;;;;;;23.17;4.93;;;9.60;99.90;;;;;;5114141;28;20164;-56
2023/12/10 01:10:23;;;;;;;27.20;5.32;;;9.70;99.90;;;;;;5114034;28;20208;-54
2023/12/10 01:12:49;;;;;;;26.35;4.95;;;9.60;99.90;;;;;;5114071;28;20163;-55
2023/12/10 01:15:14;;;;;;;16.63;4.70;;;9.70;99.90;;;;;;5100018;28;20181;-56
2023/12/10 01:17:40;;;;;;;26.83;5.78;;;9.70;99.90;;;;;;5093538;28;20165;-55
2023/12/10 01:20:06;;;;;;;32.58;5.82;;;9.70;99.90;;;;;;5093391;28;20240;-54
2023/12/10 01:22:31;;;;;;;18.75;4.13;;;9.70;99.90;;;;;;5093869;28;20170;-54
2023/12/10 01:24:58;;;;;;;32.97;5.32;;;9.70;99.90;;;;;;5093408;28;20180;-53
2023/12/10 01:27:24;;;;;;;21.00;5.22;;;9.70;99.90;;;;;;5093559;28;20169;-54
2023/12/10 01:29:50;;;;;;;28.30;5.65;;;9.70;99.90;;;;;;5093273;28;20213;-52
2023/12/10 01:32:15;;;;;;;20.58;4.13;;;9.70;99.90;;;;;;5093270;28;20631;-53
2023/12/10 01:34:44;;;;;;;18.45;5.55;;;9.70;99.90;;;;;;5093251;28;20195;-53
2023/12/10 01:37:10;;;;;;;17.42;3.85;;;9.70;99.90;;;;;;5075253;28;20248;-51
2023/12/10 01:39:36;;;;;;;25.75;4.53;;;9.70;99.90;;;;;;5093301;28;20616;-54
2023/12/10 01:42:02;;;;;;;13.43;3.65;;;9.70;99.90;;;;;;5093812;28;20173;-54
2023/12/10 01:44:28;;;;;;;15.70;3.90;;;9.70;99.90;;;;;;5092997;28;20173;-52
2023/12/10 01:46:56;;;;;;;18.10;4.70;;;9.70;99.90;;;;;;5093222;28;20591;-53
2023/12/10 01:49:23;;;;;;;21.77;5.38;;;9.70;99.90;;;;;;5092819;28;20651;-53
2023/12/10 01:51:49;;;;;;;23.48;4.50;;;9.70;99.90;;;;;;5092705;28;20684;-53
2023/12/10 01:54:22;;;;;;;21.35;4.22;;;9.70;99.90;;;;;;5074625;28;20166;-53
2023/12/10 01:56:49;;;;;;;8.13;2.60;;;9.60;99.90;;;;;;5092803;28;20225;-54
2023/12/10 01:59:19;;;;;;;25.38;5.78;;;9.70;99.90;;;;;;5092627;28;20169;-54
2023/12/10 02:01:47;;;;;;;25.98;3.67;;;9.70;99.90;;;;;;5093008;28;20165;-54
2023/12/10 02:04:16;;;;;;;12.85;3.42;;;9.70;99.90;;;;;;5092783;28;20173;-54
2023/12/10 02:06:46;;;;;;;18.70;3.63;;;9.60;99.90;;;;;;5092887;28;20173;-54
2023/12/10 02:09:14;;;;;;;17.15;3.30;;;9.60;99.90;;;;;;5092513;28;20197;-54
2023/12/10 02:11:41;;;;;;;17.70;3.72;;;9.60;99.90;;;;;;5096138;28;20177;-54
2023/12/10 02:14:06;;;;;;;15.43;2.83;;;9.60;99.90;;;;;;5112814;28;20578;-53
2023/12/10 02:16:32;;;;;;;16.67;3.83;;;9.60;99.90;;;;;;5113251;28;20192;-54
2023/12/10 02:18:57;;;;;;;16.13;3.13;;;9.60;99.90;;;;;;5112765;28;20173;-54
2023/12/10 02:21:25;;;;;;;10.85;3.67;;;9.60;99.90;;;;;;5112600;28;20203;-54
2023/12/10 02:23:59;;;;;;;12.57;3.55;;;9.60;99.90;;;;;;5112721;28;20255;-54
2023/12/10 02:26:25;;;;;;;20.88;3.60;;;9.70;99.90;;;;;;5112764;28;20218;-52
2023/12/10 02:28:51;;;;;;;26.77;4.43;;;9.60;99.90;;;;;;5112498;28;20172;-54
2023/12/10 02:31:20;;;;;;;15.30;3.25;;;9.60;99.90;;;;;;5112777;28;20176;-53
2023/12/10 02:33:48;;;;;;;14.65;3.10;;;9.60;99.90;;;;;;5112587;28;20574;-55
2023/12/10 02:36:14;;;;;;;13.23;4.10;;;9.60;99.90;;;;;;5112121;28;20172;-54
2023/12/10 02:38:39;;;;;;;11.63;3.72;;;9.60;99.90;;;;;;5110931;28;20248;-54
2023/12/10 02:41:05;;;;;;;16.73;2.80;;;9.50;99.90;;;;;;5112302;28;20179;-52
2023/12/10 02:43:31;;;;;;;14.30;3.20;;;9.50;99.90;;;;;;5112744;28;20164;-54
2023/12/10 02:45:57;;;;;;;16.38;4.40;;;9.60;99.90;;;;;;5112223;28;20165;-54
2023/12/10 02:48:23;;;;;;;13.23;2.92;;;9.60;99.90;;;;;;5112227;28;20163;-54
2023/12/10 02:50:51;;;;;;;13.15;3.50;;;9.60;99.90;;;;;;5112082;28;20334;-54
2023/12/10 02:53:17;;;;;;;17.23;3.30;;;9.60;99.90;;;;;;5111930;28;20571;-54
2023/12/10 02:55:43;;;;;;;12.80;3.38;;;9.60;99.90;;;;;;5112104;28;20573;-54
2023/12/10 02:58:09;;;;;;;16.08;3.30;;;9.60;99.90;;;;;;5112086;28;20271;-55
2023/12/10 03:00:35;;;;;;;11.65;2.85;;;9.60;99.90;;;;;;5112294;28;20532;-57
2023/12/10 03:03:01;;;;;;;16.08;3.13;;;9.60;99.90;;;;;;5112467;28;20533;-55
2023/12/10 03:05:26;;;;;;;10.23;2.63;;;9.50;99.90;;;;;;5112018;28;20157;-54
2023/12/10 03:07:52;;;;;;;10.05;3.40;;;9.50;99.90;;;;;;5095485;28;20177;-55
2023/12/10 03:10:19;;;;;;;11.15;2.63;;;9.40;99.90;;;;;;5091095;28;20236;-54
2023/12/10 03:12:44;;;;;;;16.13;2.90;;;9.40;99.90;;;;;;5091335;28;20248;-55
2023/12/10 03:15:10;;;;;;;19.58;4.05;;;9.30;99.90;;;;;;5091475;28;20239;-55
2023/12/10 03:17:36;;;;;;;15.77;3.55;;;9.30;99.90;;;;;;5091466;28;20166;-55
2023/12/10 03:20:03;;;;;;;15.13;3.40;;;9.30;99.90;;;;;;5091937;28;20215;-53
2023/12/10 03:22:29;;;;;;;9.10;3.17;;;9.30;99.90;;;;;;5091339;28;20573;-53
2023/12/10 03:24:54;;;;;;;18.20;3.63;;;9.20;99.90;;;;;;5091399;28;20215;-54
2023/12/10 03:27:20;;;;;;;17.85;3.70;;;9.20;99.90;;;;;;5091450;28;20181;-54
2023/12/10 03:29:46;;;;;;;21.25;4.03;;;9.20;99.90;;;;;;5091262;28;20247;-52
2023/12/10 03:32:12;;;;;;;25.10;3.95;;;9.20;99.90;;;;;;5091345;28;20201;-54
2023/12/10 03:34:37;;;;;;;16.10;3.03;;;9.20;99.90;;;;;;5091559;28;20169;-54
2023/12/10 03:37:03;;;;;;;15.02;3.15;;;9.10;99.90;;;;;;5092053;28;20177;-54
2023/12/10 03:39:28;;;;;;;22.35;5.03;;;9.00;99.90;;;;;;5103917;28;20176;-54
2023/12/10 03:41:54;;;;;;;24.35;4.75;;;9.00;99.90;;;;;;5111565;28;20160;-54
2023/12/10 03:44:20;;;;;;;17.98;3.53;;;8.90;99.90;;;;;;5111626;28;20176;-54
2023/12/10 03:46:45;;;;;;;25.35;4.30;;;8.90;99.90;;;;;;5111615;28;20222;-54
2023/12/10 03:49:11;;;;;;;11.77;3.13;;;8.90;99.90;;;;;;5111505;28;20192;-55
2023/12/10 03:51:36;;;;;;;30.88;4.50;;;8.90;99.90;;;;;;5111419;28;20220;-53
2023/12/10 03:54:02;;;;;;;20.85;3.38;;;8.90;99.90;;;;;;5111947;28;20203;-55
2023/12/10 03:56:27;;;;;;;9.50;2.53;;;8.80;99.90;;;;;;5111455;28;20245;-55
2023/12/10 03:58:53;;;;;;;14.13;2.65;;;8.80;99.90;;;;;;5111483;28;20270;-53
2023/12/10 04:01:19;;;;;;;15.15;2.90;;;8.80;99.90;;;;;;5111368;28;20164;-54
2023/12/10 04:03:45;;;;;;;16.00;3.90;;;8.90;99.90;;;;;;5111460;28;20165;-53
2023/12/10 04:06:10;;;;;;;16.10;4.28;;;8.80;99.90;;;;;;5107628;28;20194;-51
2023/12/10 04:08:36;;;;;;;23.52;4.47;;;8.80;99.90;;;;;;5072868;28;20161;-54
2023/12/10 04:11:02;;;;;;;11.50;3.08;;;8.80;99.90;;;;;;5091536;28;20209;-52
2023/12/10 04:13:28;;;;;;;17.23;3.80;;;8.70;99.90;;;;;;5091013;28;20158;-54
2023/12/10 04:15:53;;;;;;;15.02;3.10;;;8.80;99.90;;;;;;5091056;28;20165;-52
2023/12/10 04:18:19;;;;;;;17.85;4.07;;;8.70;99.90;;;;;;5090962;28;20169;-53
2023/12/10 04:20:44;;;;;;;13.20;3.33;;;8.80;99.90;;;;;;5090867;28;20173;-54
2023/12/10 04:23:10;;;;;;;17.70;3.65;;;8.80;99.90;;;;;;5093433;28;20621;-53
2023/12/10 04:25:35;;;;;;;17.33;3.78;;;8.80;99.90;;;;;;5094619;28;20187;-54
2023/12/10 04:28:01;;;;;;;14.35;3.97;;;8.80;99.90;;;;;;5094961;28;20162;-54
2023/12/10 04:30:27;;;;;;;12.50;3.53;;;8.80;99.90;;;;;;5094677;28;20205;-51
2023/12/10 04:32:53;;;;;;;29.65;4.15;;;8.80;99.90;;;;;;5094425;28;20686;-52
2023/12/10 04:35:19;;;;;;;13.30;4.43;;;8.70;99.90;;;;;;5094638;28;20173;-53
2023/12/10 04:37:45;;;;;;;19.92;3.00;;;8.80;99.90;;;;;;5094875;28;20276;-52
2023/12/10 04:40:11;;;;;;;23.60;4.72;;;8.80;99.90;;;;;;5094557;28;20541;-54
2023/12/10 04:42:40;;;;;;;23.27;5.50;;;8.80;99.90;;;;;;5094227;28;20633;-54
2023/12/10 04:45:09;;;;;;;9.75;2.58;;;8.80;99.90;;;;;;5094087;28;20200;-54
2023/12/10 04:47:35;;;;;;;19.02;3.85;;;8.80;99.90;;;;;;5094397;28;20172;-55
2023/12/10 04:50:02;;;;;;;15.88;3.92;;;8.80;99.90;;;;;;5094451;28;20217;-54
2023/12/10 04:52:29;;;;;;;16.90;3.58;;;8.90;99.90;;;;;;5093874;28;20228;-54
2023/12/10 04:54:55;;;;;;;12.02;3.00;;;8.90;99.90;;;;;;5094207;28;20173;-55
2023/12/10 04:57:20;;;;;;;20.85;4.28;;;9.00;99.90;;;;;;5093950;28;20565;-55
2023/12/10 04:59:47;;;;;;;21.05;4.85;;;9.00;99.90;;;;;;5093888;28;20651;-54
2023/12/10 05:02:12;;;;;;;11.48;2.53;;;9.10;99.90;;;;;;5093816;28;20240;-55
2023/12/10 05:04:38;;;;;;;14.43;3.17;;;9.00;99.90;;;;;;5093805;28;20161;-54
2023/12/10 05:07:03;;;;;;;14.63;3.80;;;9.10;99.90;;;;;;5106966;28;20177;-52
2023/12/10 05:09:29;;;;;;;16.65;4.35;;;9.10;99.90;;;;;;5114199;28;20208;-54
2023/12/10 05:11:55;;;;;;;32.13;4.75;;;9.20;99.90;;;;;;5114079;28;20172;-54
2023/12/10 05:14:20;;;;;;;15.05;3.60;;;9.20;99.90;;;;;;5114003;28;20173;-53
2023/12/10 05:16:46;;;;;;;21.27;4.03;;;9.10;99.90;;;;;;5114196;28;20169;-54
2023/12/10 05:19:11;;;;;;;18.40;3.15;;;9.10;99.90;;;;;;5113947;28;20662;-53
2023/12/10 05:21:37;;;;;;;18.85;2.95;;;9.10;99.90;;;;;;5113849;28;20169;-53
2023/12/10 05:24:03;;;;;;;17.63;3.28;;;9.20;99.90;;;;;;5114225;28;20173;-53
2023/12/10 05:26:29;;;;;;;22.75;5.47;;;9.30;99.90;;;;;;5114273;28;20220;-54
2023/12/10 05:28:54;;;;;;;18.98;4.72;;;9.20;99.90;;;;;;5113617;28;20173;-54
2023/12/10 05:31:20;;;;;;;17.67;3.03;;;9.20;99.90;;;;;;5113716;28;20204;-54
2023/12/10 05:33:45;;;;;;;16.48;4.45;;;9.20;99.90;;;;;;5113091;28;20649;-54
2023/12/10 05:36:11;;;;;;;15.57;3.40;;;9.20;99.90;;;;;;5107513;28;20245;-54
2023/12/10 05:38:36;;;;;;;17.67;3.78;;;9.30;99.90;;;;;;5101489;28;20164;-53
2023/12/10 05:41:02;;;;;;;19.90;4.13;;;9.20;99.90;;;;;;5093438;28;20569;-52
2023/12/10 05:43:28;;;;;;;22.80;3.65;;;9.20;99.90;;;;;;5092415;28;20169;-52
2023/12/10 05:45:53;;;;;;;12.18;2.53;;;9.20;99.90;;;;;;5092697;28;20230;-53
2023/12/10 05:48:20;;;;;;;12.88;3.03;;;9.20;99.90;;;;;;5092377;28;20172;-54
2023/12/10 05:50:46;;;;;;;23.08;5.93;;;9.20;99.90;;;;;;5092656;28;20216;-54
2023/12/10 05:53:11;;;;;;;16.60;3.58;;;9.20;99.90;;;;;;5092139;28;20561;-54
2023/12/10 05:55:37;;;;;;;17.80;2.90;;;9.20;99.90;;;;;;5092296;28;20173;-53
2023/12/10 05:58:03;;;;;;;17.17;4.38;;;9.20;99.90;;;;;;5092653;28;20226;-53
2023/12/10 06:00:28;;;;;;;23.38;4.68;;;9.20;99.90;;;;;;5092612;28;20165;-52
2023/12/10 06:02:54;;;;;;;14.65;3.33;;;9.20;99.90;;;;;;5092158;28;20188;-51
2023/12/10 06:05:19;;;;;;;13.35;2.60;;;9.30;99.90;;;;;;5092426;28;20176;-53
2023/12/10 06:07:45;;;;;;;17.90;3.75;;;9.30;99.90;;;;;;5092184;28;20174;-53
2023/12/10 06:10:12;;;;;;;12.95;3.13;;;9.20;99.90;;;;;;5091853;28;20231;-54
2023/12/10 06:12:37;;;;;;;17.15;3.25;;;9.20;99.90;;;;;;5092216;28;20248;-54
2023/12/10 06:15:03;;;;;;;16.25;2.95;;;9.30;99.90;;;;;;5092298;28;20692;-54
2023/12/10 06:17:29;;;;;;;21.33;3.63;;;9.20;99.90;;;;;;5092657;28;20177;-54
2023/12/10 06:19:55;;;;;;;15.00;3.30;;;9.30;99.90;;;;;;5073539;28;20173;-53
2023/12/10 06:22:21;;;;;;;20.73;4.10;;;9.30;99.90;;;;;;5091704;28;20187;-53
2023/12/10 06:24:46;;;;;;;16.85;4.22;;;9.30;99.90;;;;;;5091951;28;20184;-52
2023/12/10 06:27:12;;;;;;;13.15;3.67;;;9.30;99.90;;;;;;5091809;28;20192;-52
2023/12/10 06:29:39;;;;;;;15.93;3.25;;;9.30;99.90;;;;;;5091623;28;20322;-53
2023/12/10 06:32:05;;;;;;;14.15;3.05;;;9.30;99.90;;;;;;5091481;28;20169;-54
2023/12/10 06:34:30;;;;;;;54.63;5.88;;;9.30;99.90;;;;;;5091919;28;20169;-53
2023/12/10 06:36:56;;;;;;;12.95;3.88;;;9.30;99.90;;;;;;5091607;28;20694;-53
2023/12/10 06:39:21;;;;;;;13.52;3.88;;;9.30;99.90;;;;;;5091194;28;20165;-52
2023/12/10 06:41:47;;;;;;;12.05;3.15;;;9.30;99.90;;;;;;5091624;28;20185;-54
2023/12/10 06:44:15;;;;;;;15.02;3.65;;;9.30;99.90;;;;;;5091430;28;20210;-52
2023/12/10 06:46:41;;;;;;;13.90;3.35;;;9.30;99.90;;;;;;5090334;28;20706;-51
2023/12/10 06:49:06;;;;;;;19.50;4.25;;;9.30;99.90;;;;;;5091458;28;20201;-54
2023/12/10 06:51:32;;;;;;;12.48;3.05;;;9.30;99.90;;;;;;5091597;28;20221;-53
2023/12/10 06:53:57;;;;;;;20.77;4.40;;;9.30;99.90;;;;;;5091403;28;20162;-54
2023/12/10 06:56:23;;;;;;;13.65;2.75;;;9.30;99.90;;;;;;5091668;28;20238;-51
2023/12/10 06:58:49;;;;;;;16.92;3.33;;;9.30;99.90;;;;;;5091723;28;20244;-54
2023/12/10 07:01:15;;;;;;;23.98;4.35;;;9.30;99.90;;;;;;5091945;28;20181;-54
2023/12/10 07:03:40;;;;;;;13.23;3.95;;;9.30;99.90;;;;;;5091612;28;20157;-54
2023/12/10 07:06:06;;;;;;;15.48;3.08;;;9.30;99.90;;;;;;5101028;28;20664;-54
2023/12/10 07:08:31;;;;;;;28.20;4.65;;;9.40;99.90;;;;;;5094356;28;20235;-55
2023/12/10 07:10:57;;;;;;;17.02;3.88;;;9.40;99.90;;;;;;5111796;28;20204;-54
2023/12/10 07:13:23;;;;;;;16.02;2.65;;;9.30;99.90;;;;;;5111796;28;20735;-54
2023/12/10 07:15:48;;;;;;;18.25;3.15;;;9.30;99.90;;;;;;5111785;28;20164;-54
2023/12/10 07:18:14;;;;;;;13.95;3.35;;;9.30;99.90;;;;;;5111785;28;20683;-52
2023/12/10 07:20:40;;;;;;;17.95;3.30;;;9.30;99.90;;;;;;5111867;28;20176;-54
2023/12/10 07:23:05;;;;;;;20.73;3.30;;;9.30;99.90;;;;;;5111715;28;20164;-55
2023/12/10 07:25:31;;;;;;;16.95;3.15;;;9.40;99.90;;;;;;5112368;28;20635;-54
2023/12/10 07:27:56;;;;;;;14.82;4.65;;;9.40;99.90;;;;;;5111744;28;20203;-54
2023/12/10 07:30:22;;;;;;;25.98;4.28;;;9.40;99.90;;;;;;5093317;28;20609;-54
2023/12/10 07:32:48;;;;;;;14.77;4.15;;;9.40;99.90;;;;;;5111716;28;20164;-54
2023/12/10 07:35:14;;;;;;;18.27;2.97;;;9.40;99.90;;;;;;5109565;28;20180;-54
2023/12/10 07:37:39;;;;;;;14.50;4.22;;;9.30;99.90;;;;;;5091269;28;20568;-54
2023/12/10 07:40:06;;;;;;;19.92;3.78;;;9.30;99.90;;;;;;5091021;28;20201;-55
2023/12/10 07:42:32;;;;;;;15.05;3.42;;;9.40;99.90;;;;;;5091205;28;20640;-54
2023/12/10 07:44:57;;;;;;;25.77;3.50;;;9.30;99.90;;;;;;5090569;28;20169;-54
2023/12/10 07:47:23;;;;;;;17.50;2.92;;;9.30;99.90;;;;;;5106348;28;20176;-55
2023/12/10 07:49:48;;;;;;;15.05;3.55;;;9.30;99.90;;;;;;5111116;28;20330;-55
2023/12/10 07:52:14;;;;;;;7.57;2.13;;;9.30;99.90;;;;;;5111311;28;20216;-54
2023/12/10 07:54:39;;;;;;;18.58;3.33;;;9.40;99.90;;;;;;5111407;28;20165;-54
2023/12/10 07:57:05;;;;;;;19.73;2.65;;;9.40;99.90;;;;;;5112049;28;20509;-54
2023/12/10 07:59:31;;;;;;;12.90;3.67;;;9.30;99.90;;;;;;5115554;28;20187;-54
2023/12/10 08:01:57;;;;;;;22.40;4.65;;;9.30;99.90;;;;;;5115007;28;20180;-55
2023/12/10 08:04:22;;;;;;;18.90;3.40;;;9.40;99.90;;;;;;5115197;28;20172;-54
2023/12/10 08:06:48;;;;;;;14.93;3.08;;;9.30;99.90;;;;;;5114148;28;20169;-54
2023/12/10 08:09:13;;;;;;;17.05;3.30;;;9.30;99.90;;;;;;5115095;28;20590;-54
2023/12/10 08:11:39;;;;;;;9.93;2.75;;;9.30;99.90;;;;;;5115039;28;20173;-54
2023/12/10 08:14:05;;;;;;;10.07;2.95;;;9.30;99.90;;;;;;5114537;28;20192;-54
2023/12/10 08:16:30;;;;;;;17.85;4.07;;;9.40;99.90;;;;;;5115545;28;20164;-54
2023/12/10 08:18:57;;;;;;;15.32;3.97;;;9.40;99.90;;;;;;5114891;28;20171;-54
2023/12/10 08:21:23;;;;;;;16.00;3.15;;;9.30;99.90;;;;;;5114751;28;20180;-54
2023/12/10 08:23:48;;;;;;;31.00;4.65;;;9.30;99.90;;;;;;5114828;28;20521;-55
2023/12/10 08:26:14;;;;;;;14.77;2.30;;;9.30;99.90;;;;;;5114792;28;20214;-53
2023/12/10 08:28:40;;;;;;;12.40;3.05;;;9.40;99.90;;;;;;5114826;28;20176;-54
2023/12/10 08:31:06;;;;;;;15.32;2.92;;;9.40;99.90;;;;;;5114499;28;20260;-54
2023/12/10 08:33:32;;;;;;;11.25;2.42;;;9.40;99.90;;;;;;5115258;28;20252;-54
2023/12/10 08:35:58;;;;;;;12.18;2.85;;;9.30;99.90;;;;;;5103794;28;20311;-54
2023/12/10 08:38:23;;;;;;;12.77;2.90;;;9.40;99.90;;;;;;5094222;28;20173;-54
2023/12/10 08:40:49;;;;;;;16.48;3.05;;;9.30;99.90;;;;;;5094252;28;20278;-54
2023/12/10 08:43:15;;;;;;;13.57;3.25;;;9.40;99.90;;;;;;5094568;28;20303;-54
2023/12/10 08:45:40;;;;;;;13.85;3.92;;;9.40;99.90;;;;;;5093915;28;20184;-54
2023/12/10 08:48:06;;;;;;;12.60;4.00;;;9.40;99.90;;;;;;5093858;28;20621;-54
2023/12/10 08:50:31;;;;;;;21.83;3.85;;;9.40;99.90;;;;;;5094577;28;20211;-54
2023/12/10 08:52:57;;;;;;;10.18;3.00;;;9.40;99.90;;;;;;5093877;28;20576;-54
2023/12/10 08:55:22;;;;;;;19.73;3.40;;;9.40;99.90;;;;;;5093957;28;20165;-54
2023/12/10 08:57:48;;;;;;;15.30;3.15;;;9.40;99.90;;;;;;5093946;28;20629;-54
2023/12/10 09:00:14;;;;;;;16.38;3.08;;;9.40;99.90;;;;;;5093889;28;20242;-54
2023/12/10 09:02:40;;;;;;;14.95;3.47;;;9.40;99.90;;;;;;5093865;28;20169;-54
2023/12/10 09:05:06;;;;;;;11.38;3.17;;;9.40;99.90;;;;;;5094175;28;20211;-54
2023/12/10 09:07:31;;;;;;;18.45;3.78;;;9.40;99.90;;;;;;5094095;28;20173;-54
2023/12/10 09:09:59;;;;;;;19.45;4.15;;;9.40;99.90;;;;;;5092604;28;20254;-54
2023/12/10 09:12:28;;;;;;;15.88;3.08;;;9.50;99.90;;;;;;5093459;28;20166;-54
2023/12/10 09:14:54;;;;;;;11.18;3.03;;;9.40;99.90;;;;;;5093881;28;20180;-54
2023/12/10 09:17:20;;;;;;;33.00;4.10;;;9.50;99.90;;;;;;5093575;28;20161;-54
2023/12/10 09:19:46;;;;;;;14.00;3.10;;;9.50;99.90;;;;;;5093484;28;20173;-54
2023/12/10 09:22:12;;;;;;;25.10;4.22;;;9.50;99.90;;;;;;5093507;28;20226;-53
2023/12/10 09:24:39;;;;;;;18.33;3.55;;;9.50;99.90;;;;;;5075285;28;20165;-54
2023/12/10 09:27:05;;;;;;;14.60;2.85;;;9.50;99.90;;;;;;5093549;28;20196;-54
2023/12/10 09:29:38;;;;;;;16.13;3.55;;;9.60;99.90;;;;;;5093915;28;20669;-54
2023/12/10 09:32:06;;;;;;;19.58;3.67;;;9.60;99.90;;;;;;5093875;28;20176;-51
2023/12/10 09:34:32;;;;;;;17.23;3.65;;;9.70;99.90;;;;;;5093678;28;20161;-54
2023/12/10 09:36:58;;;;;;;12.88;3.58;;;9.70;99.90;;;;;;5093654;28;20174;-54
2023/12/10 09:39:24;;;;;;;18.50;5.00;;;9.80;99.90;;;;;;5093009;28;20662;-54
2023/12/10 09:41:50;;;;;;;18.63;4.25;;;9.80;99.90;;;;;;5093061;28;20215;-54
2023/12/10 09:44:15;;;;;;;18.27;3.47;;;9.80;99.90;;;;;;5092957;28;20552;-54
2023/12/10 09:46:41;;;;;;;13.23;3.17;;;9.80;99.90;;;;;;5092975;28;20169;-54
2023/12/10 09:49:07;;;;;;;19.58;4.07;;;10.00;99.90;;;;;;5092849;28;20161;-54
2023/12/10 09:51:32;;;;;;;18.02;4.35;;;10.00;99.90;;;;;;5093481;28;20221;-54
2023/12/10 09:53:58;;;;;;;27.63;4.53;;;10.00;99.90;;;;;;5092747;28;20169;-55
2023/12/10 09:56:24;;;;;;;20.70;3.85;;;9.90;99.90;;;;;;5092827;28;20563;-54
2023/12/10 09:58:49;;;;;;;16.40;4.10;;;9.90;99.90;;;;;;5092593;28;20197;-54
2023/12/10 10:01:15;;;;;;;17.52;3.92;;;9.90;99.90;;;;;;5092749;28;20225;-54
2023/12/10 10:03:41;;;;;;;20.02;3.42;;;9.90;99.90;;;;;;5092570;28;20565;-54
2023/12/10 10:06:07;;;;;;;19.33;4.32;;;9.90;99.90;;;;;;5093172;28;20187;-51
2023/12/10 10:08:32;;;;;;;24.70;4.50;;;9.90;99.90;;;;;;5093114;28;20161;-54
2023/12/10 10:10:58;;;;;;;13.15;3.13;;;10.10;99.90;;;;;;5092398;28;20665;-54
2023/12/10 10:13:24;;;;;;;15.00;3.40;;;10.00;99.90;;;;;;5092493;28;20215;-54
2023/12/10 10:15:49;;;;;;;16.15;4.03;;;10.00;99.90;;;;;;5091886;28;20173;-54
2023/12/10 10:18:15;;;;;;;19.88;4.72;;;10.00;99.90;;;;;;5092325;28;20567;-54
2023/12/10 10:20:41;;;;;;;17.48;3.75;;;10.10;99.90;;;;;;5091951;28;20176;-54
2023/12/10 10:23:08;;;;;;;20.38;3.97;;;10.10;99.90;;;;;;5092141;28;20170;-54
2023/12/10 10:25:34;;;;;;;20.20;3.83;;;10.20;99.90;;;;;;5092263;28;20183;-53
2023/12/10 10:27:59;;;;;;;17.50;3.70;;;10.20;99.90;;;;;;5091554;28;20244;-55
2023/12/10 10:30:25;;;;;;;13.38;3.42;;;10.30;99.90;;;;;;5091834;28;20287;-55
2023/12/10 10:32:54;;;;;;;22.55;4.72;;;10.40;99.90;;;;;;5091822;28;20189;-54
2023/12/10 10:35:20;;;;;;;24.15;5.03;;;10.40;99.90;;;;;;5098100;28;20171;-53
2023/12/10 10:37:47;;;;;;;18.83;4.30;;;10.50;99.90;;;;;;5112049;28;20569;-54
2023/12/10 10:40:13;;;;;;;25.17;4.85;;;10.50;99.90;;;;;;5112040;28;20192;-53
2023/12/10 10:42:39;;;;;;;21.17;4.45;;;10.60;99.90;;;;;;5111699;28;20204;-53
2023/12/10 10:45:07;;;;;;;25.55;4.35;;;10.60;99.90;;;;;;5111482;28;20188;-53
2023/12/10 10:47:34;;;;;;;24.38;4.25;;;10.60;99.90;;;;;;5112453;28;20620;-52
2023/12/10 10:50:01;;;;;;;16.23;3.83;;;10.60;99.90;;;;;;5094078;28;20205;-54
2023/12/10 10:52:31;;;;;;;22.88;3.83;;;10.50;99.90;;;;;;5111777;28;20247;-54
2023/12/10 10:54:59;;;;;;;43.30;3.80;;;10.60;99.90;;;;;;5111780;28;20247;-52
2023/12/10 10:57:34;;;;;;;25.33;4.25;;;10.80;99.90;;;;;;5111425;28;20160;-54
2023/12/10 10:59:59;;;;;;;19.58;4.20;;;11.00;99.90;;;;;;5112515;28;20176;-53
2023/12/10 11:02:25;;;;;;;25.92;5.65;;;11.10;99.90;;;;;;5111047;28;20160;-55
2023/12/10 11:04:51;;;;;;;14.30;3.22;;;11.20;99.90;;;;;;5108835;28;20173;-54
2023/12/10 11:07:20;;;;;;;18.00;4.65;;;11.20;99.90;;;;;;5091995;28;20177;-54
2023/12/10 11:10:00;;;;;;;16.33;3.85;;;11.20;99.90;;;;;;5091726;28;20209;-54
2023/12/10 11:12:42;;;;;;;17.23;4.75;;;11.20;99.90;;;;;;5091519;28;20169;-54
2023/12/10 11:15:13;;;;;;;18.50;5.57;;;11.10;99.90;;;;;;5092062;28;20512;-53
2023/12/10 11:18:00;;;;;;;14.95;3.42;;;11.20;99.90;;;;;;5091489;28;20308;-53
2023/12/10 11:20:38;;;;;;;23.15;5.10;;;11.10;99.90;;;;;;5091489;28;20161;-53
2023/12/10 11:23:07;;;;;;;20.27;4.45;;;11.20;99.90;;;;;;5091659;28;20223;-53
2023/12/10 11:25:33;;;;;;;23.42;4.63;;;11.20;99.90;;;;;;5092154;28;20205;-54
2023/12/10 11:28:10;;;;;;;22.50;4.88;;;11.20;99.90;;;;;;5091692;28;20240;-54
2023/12/10 11:30:37;;;;;;;25.23;5.68;;;11.20;99.90;;;;;;5091352;28;20208;-54
2023/12/10 11:33:03;;;;;;;20.17;3.65;;;11.00;99.90;;;;;;5094653;28;20211;-54
2023/12/10 11:35:29;;;;;;;24.80;5.40;;;10.90;99.90;;;;;;5096163;28;20177;-54
2023/12/10 11:37:54;;;;;;;21.38;4.55;;;10.90;99.90;;;;;;5095393;28;20168;-54
2023/12/10 11:40:20;;;;;;;21.88;3.85;;;10.80;99.90;;;;;;5095013;28;20226;-54
2023/12/10 11:42:46;;;;;;;17.75;3.88;;;10.90;99.90;;;;;;5095105;28;20165;-53
2023/12/10 11:45:13;;;;;;;21.65;5.10;;;10.90;99.90;;;;;;5095211;28;20248;-54
2023/12/10 11:47:41;;;;;;;18.88;4.68;;;11.00;99.90;;;;;;5095522;28;20180;-54
2023/12/10 11:50:07;;;;;;;22.75;4.15;;;11.00;99.90;;;;;;5095133;28;20668;-54
2023/12/10 11:52:33;;;;;;;19.23;4.13;;;11.10;99.90;;;;;;5095384;28;20221;-54
2023/12/10 11:54:59;;;;;;;22.60;5.43;;;11.10;99.90;;;;;;5095766;28;20230;-54
2023/12/10 11:57:25;;;;;;;24.67;5.82;;;11.10;99.90;;;;;;5095363;28;20167;-54
2023/12/10 11:59:51;;;;;;;21.85;4.78;;;11.10;99.90;;;;;;5094938;28;20169;-55
2023/12/10 12:02:16;;;;;;;24.60;4.95;;;11.20;99.90;;;;;;5094940;28;20280;-55
2023/12/10 12:04:42;;;;;;;31.42;4.93;;;11.10;99.90;;;;;;5098313;28;20165;-54
2023/12/10 12:07:25;;;;;;;16.77;2.90;;;11.10;99.90;;;;;;5115555;28;20644;-54
2023/12/10 12:09:51;;;;;;;22.92;6.63;;;11.00;99.90;;;;;;5115359;28;20204;-54
2023/12/10 12:12:22;;;;;;;21.95;4.82;;;11.00;99.90;;;;;;5115493;28;20179;-54
2023/12/10 12:14:48;;;;;;;22.38;4.85;;;11.00;99.90;;;;;;5114801;28;20217;-55
2023/12/10 12:17:15;;;;;;;23.10;4.05;;;11.00;99.90;;;;;;5115158;28;20171;-54
2023/12/10 12:19:42;;;;;;;36.67;6.32;;;11.10;99.90;;;;;;5115317;28;20501;-55
2023/12/10 12:22:08;;;;;;;26.38;4.50;;;11.00;99.90;;;;;;5114930;28;20157;-63
2023/12/10 12:24:34;;;;;;;29.98;5.93;;;11.00;99.90;;;;;;5115289;28;20166;-57
2023/12/10 12:27:00;;;;;;;22.05;3.55;;;10.90;99.90;;;;;;5115425;28;20703;-57
2023/12/10 12:29:25;;;;;;;13.57;3.25;;;10.90;99.90;;;;;;5114730;28;20208;-57
2023/12/10 12:31:51;;;;;;;23.38;4.50;;;10.90;99.90;;;;;;5114584;28;20539;-54
2023/12/10 12:34:16;;;;;;;19.77;4.15;;;10.90;99.90;;;;;;5114316;28;20161;-54
2023/12/10 12:36:43;;;;;;;31.15;4.82;;;10.80;99.90;;;;;;5114179;28;20565;-56
2023/12/10 12:39:08;;;;;;;28.70;4.65;;;10.90;99.90;;;;;;5114313;28;20168;-53
2023/12/10 12:41:34;;;;;;;25.58;5.22;;;10.80;99.90;;;;;;5114612;28;20631;-53